sensor_id;sensor_type;location;lat;lon;timestamp;pressure;altitude;pressure_sealevel;temperature;humidity
83118;BME280;73000;51.784;4.660;2023-12-14T00:01:21;101204.03;;;7.72;85.71
83118;BME280;73000;51.784;4.660;2023-12-14T00:03:47;101208.13;;;7.64;85.41
83118;BME280;73000;51.784;4.660;2023-12-14T00:06:16;101202.75;;;7.53;85.80
83118;BME280;73000;51.784;4.660;2023-12-14T00:08:44;101222.38;;;7.61;86.11
83118;BME280;73000;51.784;4.660;2023-12-14T00:11:13;101196.31;;;7.42;85.61
83118;BME280;73000;51.784;4.660;2023-12-14T00:13:38;101216.31;;;7.59;85.28
83118;BME280;73000;51.784;4.660;2023-12-14T00:16:05;101217.91;;;7.55;85.60
83118;BME280;73000;51.784;4.660;2023-12-14T00:18:31;101203.44;;;7.38;85.01
83118;BME280;73000;51.784;4.660;2023-12-14T00:20:57;101231.13;;;7.53;85.50
83118;BME280;73000;51.784;4.660;2023-12-14T00:23:23;101217.31;;;7.27;85.43
83118;BME280;73000;51.784;4.660;2023-12-14T00:25:48;101214.84;;;7.25;85.57
83118;BME280;73000;51.784;4.660;2023-12-14T00:28:14;101231.72;;;7.34;85.47
83118;BME280;73000;51.784;4.660;2023-12-14T00:30:42;101243.81;;;7.33;85.28
83118;BME280;73000;51.784;4.660;2023-12-14T00:33:08;101242.94;;;7.27;85.00
83118;BME280;73000;51.784;4.660;2023-12-14T00:35:34;101235.81;;;7.31;85.35
83118;BME280;73000;51.784;4.660;2023-12-14T00:37:59;101239.41;;;7.32;84.66
83118;BME280;73000;51.784;4.660;2023-12-14T00:40:25;101251.69;;;7.24;85.36
83118;BME280;73000;51.784;4.660;2023-12-14T00:42:51;101262.59;;;7.14;84.67
83118;BME280;73000;51.784;4.660;2023-12-14T00:45:16;101252.41;;;7.15;84.74
83118;BME280;73000;51.784;4.660;2023-12-14T00:47:44;101250.34;;;7.05;84.53
83118;BME280;73000;51.784;4.660;2023-12-14T00:50:10;101291.16;;;7.35;84.53
83118;BME280;73000;51.784;4.660;2023-12-14T00:52:36;101291.44;;;7.33;84.43
83118;BME280;73000;51.784;4.660;2023-12-14T00:55:04;101299.03;;;7.26;84.61
83118;BME280;73000;51.784;4.660;2023-12-14T00:57:30;101299.03;;;7.26;84.94
83118;BME280;73000;51.784;4.660;2023-12-14T00:59:55;101302.84;;;7.25;84.34
83118;BME280;73000;51.784;4.660;2023-12-14T01:02:21;101285.75;;;7.18;84.56
83118;BME280;73000;51.784;4.660;2023-12-14T01:04:47;101283.75;;;7.14;83.75
83118;BME280;73000;51.784;4.660;2023-12-14T01:07:15;101312.53;;;7.28;83.85
83118;BME280;73000;51.784;4.660;2023-12-14T01:09:40;101312.97;;;7.20;83.14
83118;BME280;73000;51.784;4.660;2023-12-14T01:12:06;101335.06;;;7.25;83.77
83118;BME280;73000;51.784;4.660;2023-12-14T01:14:32;101346.25;;;7.18;83.79
83118;BME280;73000;51.784;4.660;2023-12-14T01:17:03;101341.06;;;7.22;83.18
83118;BME280;73000;51.784;4.660;2023-12-14T01:19:29;101334.47;;;7.23;83.80
83118;BME280;73000;51.784;4.660;2023-12-14T01:21:54;101323.84;;;7.10;83.20
83118;BME280;73000;51.784;4.660;2023-12-14T01:24:22;101339.06;;;7.17;83.82
83118;BME280;73000;51.784;4.660;2023-12-14T01:26:48;101359.81;;;7.25;83.42
83118;BME280;73000;51.784;4.660;2023-12-14T01:29:17;101352.81;;;7.17;84.19
83118;BME280;73000;51.784;4.660;2023-12-14T01:31:42;101333.69;;;7.06;84.39
83118;BME280;73000;51.784;4.660;2023-12-14T01:34:08;101346.75;;;7.15;83.82
83118;BME280;73000;51.784;4.660;2023-12-14T01:36:35;101364.97;;;7.21;83.83
83118;BME280;73000;51.784;4.660;2023-12-14T01:39:04;101376.75;;;7.17;83.51
83118;BME280;73000;51.784;4.660;2023-12-14T01:41:30;101368.41;;;7.12;83.22
83118;BME280;73000;51.784;4.660;2023-12-14T01:43:59;101399.94;;;7.21;83.79
83118;BME280;73000;51.784;4.660;2023-12-14T01:46:24;101405.75;;;7.24;83.48
83118;BME280;73000;51.784;4.660;2023-12-14T01:48:50;101406.78;;;7.18;83.42
83118;BME280;73000;51.784;4.660;2023-12-14T01:51:19;101402.69;;;7.04;83.33
83118;BME280;73000;51.784;4.660;2023-12-14T01:53:47;101405.50;;;7.09;82.49
83118;BME280;73000;51.784;4.660;2023-12-14T01:56:13;101419.50;;;7.08;83.51
83118;BME280;73000;51.784;4.660;2023-12-14T01:58:38;101421.69;;;7.06;83.79
83118;BME280;73000;51.784;4.660;2023-12-14T02:03:52;101445.28;;;7.18;83.19
83118;BME280;73000;51.784;4.660;2023-12-14T02:06:22;101451.34;;;7.20;83.80
83118;BME280;73000;51.784;4.660;2023-12-14T02:08:48;101460.19;;;7.22;83.77
83118;BME280;73000;51.784;4.660;2023-12-14T02:11:14;101443.69;;;7.06;83.00
83118;BME280;73000;51.784;4.660;2023-12-14T02:13:39;101444.63;;;7.11;82.81
83118;BME280;73000;51.784;4.660;2023-12-14T02:16:08;101463.00;;;7.27;82.91
83118;BME280;73000;51.784;4.660;2023-12-14T02:18:34;101429.94;;;7.06;83.26
83118;BME280;73000;51.784;4.660;2023-12-14T02:21:05;101458.19;;;7.18;83.44
83118;BME280;73000;51.784;4.660;2023-12-14T02:23:31;101456.28;;;7.18;82.76
83118;BME280;73000;51.784;4.660;2023-12-14T02:25:57;101437.28;;;7.00;83.58
83118;BME280;73000;51.784;4.660;2023-12-14T02:28:22;101442.28;;;7.03;82.80
83118;BME280;73000;51.784;4.660;2023-12-14T02:30:51;101457.88;;;7.14;82.90
83118;BME280;73000;51.784;4.660;2023-12-14T02:33:19;101484.41;;;7.25;82.69
83118;BME280;73000;51.784;4.660;2023-12-14T02:35:47;101460.63;;;7.14;83.62
83118;BME280;73000;51.784;4.660;2023-12-14T02:38:13;101468.59;;;7.16;83.03
83118;BME280;73000;51.784;4.660;2023-12-14T02:40:39;101484.09;;;7.22;81.98
83118;BME280;73000;51.784;4.660;2023-12-14T02:43:05;101488.75;;;7.21;81.91
83118;BME280;73000;51.784;4.660;2023-12-14T02:45:33;101495.69;;;7.24;82.84
83118;BME280;73000;51.784;4.660;2023-12-14T02:47:59;101489.19;;;7.13;83.34
83118;BME280;73000;51.784;4.660;2023-12-14T02:50:25;101496.09;;;7.16;82.38
83118;BME280;73000;51.784;4.660;2023-12-14T02:52:50;101495.09;;;7.22;83.57
83118;BME280;73000;51.784;4.660;2023-12-14T02:55:21;101479.75;;;6.93;83.04
83118;BME280;73000;51.784;4.660;2023-12-14T02:57:50;101497.84;;;7.05;82.79
83118;BME280;73000;51.784;4.660;2023-12-14T03:00:15;101520.97;;;7.21;83.10
83118;BME280;73000;51.784;4.660;2023-12-14T03:02:44;101502.63;;;7.10;82.30
83118;BME280;73000;51.784;4.660;2023-12-14T03:05:10;101507.09;;;7.16;82.93
83118;BME280;73000;51.784;4.660;2023-12-14T03:07:36;101505.94;;;7.12;82.37
83118;BME280;73000;51.784;4.660;2023-12-14T03:10:05;101514.28;;;7.17;82.23
83118;BME280;73000;51.784;4.660;2023-12-14T03:12:33;101505.13;;;7.11;83.06
83118;BME280;73000;51.784;4.660;2023-12-14T03:14:59;101505.69;;;7.13;82.81
83118;BME280;73000;51.784;4.660;2023-12-14T03:17:27;101487.78;;;7.11;82.57
83118;BME280;73000;51.784;4.660;2023-12-14T03:19:53;101506.34;;;7.20;83.01
83118;BME280;73000;51.784;4.660;2023-12-14T03:22:19;101525.63;;;7.20;82.23
83118;BME280;73000;51.784;4.660;2023-12-14T03:24:44;101529.72;;;7.18;82.91
83118;BME280;73000;51.784;4.660;2023-12-14T03:27:12;101503.28;;;7.00;83.25
83118;BME280;73000;51.784;4.660;2023-12-14T03:29:41;101506.78;;;6.96;82.90
83118;BME280;73000;51.784;4.660;2023-12-14T03:32:09;101533.88;;;7.20;83.26
83118;BME280;73000;51.784;4.660;2023-12-14T03:34:34;101510.44;;;7.18;82.45
83118;BME280;73000;51.784;4.660;2023-12-14T03:37:00;101501.28;;;7.12;82.22
83118;BME280;73000;51.784;4.660;2023-12-14T03:39:26;101525.63;;;7.20;82.12
83118;BME280;73000;51.784;4.660;2023-12-14T03:41:51;101532.47;;;7.18;82.21
83118;BME280;73000;51.784;4.660;2023-12-14T03:44:17;101546.38;;;7.11;83.01
83118;BME280;73000;51.784;4.660;2023-12-14T03:46:51;101543.69;;;7.16;83.23
83118;BME280;73000;51.784;4.660;2023-12-14T03:49:21;101531.53;;;7.12;83.01
83118;BME280;73000;51.784;4.660;2023-12-14T03:51:47;101539.53;;;7.14;82.95
83118;BME280;73000;51.784;4.660;2023-12-14T03:54:15;101535.63;;;7.10;82.84
83118;BME280;73000;51.784;4.660;2023-12-14T03:56:41;101541.69;;;7.12;82.78
83118;BME280;73000;51.784;4.660;2023-12-14T03:59:07;101531.78;;;7.11;82.41
83118;BME280;73000;51.784;4.660;2023-12-14T04:01:35;101539.09;;;7.05;82.13
83118;BME280;73000;51.784;4.660;2023-12-14T04:04:04;101548.63;;;7.14;82.38
83118;BME280;73000;51.784;4.660;2023-12-14T04:06:33;101561.78;;;7.12;83.05
83118;BME280;73000;51.784;4.660;2023-12-14T04:08:59;101557.63;;;7.10;82.44
83118;BME280;73000;51.784;4.660;2023-12-14T04:11:27;101579.94;;;7.13;83.01
83118;BME280;73000;51.784;4.660;2023-12-14T04:13:52;101581.66;;;7.14;82.69
83118;BME280;73000;51.784;4.660;2023-12-14T04:16:27;101583.13;;;7.05;82.69
83118;BME280;73000;51.784;4.660;2023-12-14T04:18:53;101588.97;;;7.09;83.32
83118;BME280;73000;51.784;4.660;2023-12-14T04:21:21;101587.63;;;7.11;83.47
83118;BME280;73000;51.784;4.660;2023-12-14T04:23:47;101577.63;;;7.05;82.74
83118;BME280;73000;51.784;4.660;2023-12-14T04:26:12;101600.13;;;7.19;82.28
83118;BME280;73000;51.784;4.660;2023-12-14T04:28:41;101613.06;;;7.18;83.01
83118;BME280;73000;51.784;4.660;2023-12-14T04:31:09;101597.78;;;7.11;83.10
83118;BME280;73000;51.784;4.660;2023-12-14T04:33:35;101616.63;;;7.19;82.83
83118;BME280;73000;51.784;4.660;2023-12-14T04:36:04;101610.56;;;7.17;83.32
83118;BME280;73000;51.784;4.660;2023-12-14T04:38:30;101619.47;;;7.07;82.73
83118;BME280;73000;51.784;4.660;2023-12-14T04:40:55;101616.97;;;7.06;82.89
83118;BME280;73000;51.784;4.660;2023-12-14T04:43:21;101618.13;;;7.10;82.47
83118;BME280;73000;51.784;4.660;2023-12-14T04:45:46;101627.59;;;7.02;83.29
83118;BME280;73000;51.784;4.660;2023-12-14T04:48:12;101639.13;;;6.99;82.44
83118;BME280;73000;51.784;4.660;2023-12-14T04:52:49;101672.78;;;7.06;82.59
83118;BME280;73000;51.784;4.660;2023-12-14T04:55:22;101673.19;;;6.98;82.78
83118;BME280;73000;51.784;4.660;2023-12-14T04:57:48;101702.06;;;7.12;81.82
83118;BME280;73000;51.784;4.660;2023-12-14T05:00:14;101677.34;;;7.01;82.71
83118;BME280;73000;51.784;4.660;2023-12-14T05:02:40;101702.91;;;7.13;82.61
83118;BME280;73000;51.784;4.660;2023-12-14T05:05:05;101688.34;;;7.01;82.25
83118;BME280;73000;51.784;4.660;2023-12-14T05:07:31;101713.78;;;7.08;82.19
83118;BME280;73000;51.784;4.660;2023-12-14T05:09:56;101726.59;;;7.14;82.39
83118;BME280;73000;51.784;4.660;2023-12-14T05:12:22;101726.38;;;7.04;80.97
83118;BME280;73000;51.784;4.660;2023-12-14T05:14:51;101742.38;;;7.07;81.37
83118;BME280;73000;51.784;4.660;2023-12-14T05:17:19;101739.19;;;6.98;81.53
83118;BME280;73000;51.784;4.660;2023-12-14T05:19:48;101734.44;;;6.94;81.80
83118;BME280;73000;51.784;4.660;2023-12-14T05:22:15;101748.03;;;7.00;81.48
83118;BME280;73000;51.784;4.660;2023-12-14T05:24:40;101752.22;;;7.03;81.50
83118;BME280;73000;51.784;4.660;2023-12-14T05:27:06;101734.16;;;6.95;82.47
83118;BME280;73000;51.784;4.660;2023-12-14T05:29:32;101736.09;;;6.95;81.98
83118;BME280;73000;51.784;4.660;2023-12-14T05:31:58;101747.88;;;7.07;82.15
83118;BME280;73000;51.784;4.660;2023-12-14T05:34:27;101747.41;;;6.98;81.17
83118;BME280;73000;51.784;4.660;2023-12-14T05:36:53;101744.09;;;6.96;81.24
83118;BME280;73000;51.784;4.660;2023-12-14T05:39:18;101746.59;;;6.98;81.10
83118;BME280;73000;51.784;4.660;2023-12-14T05:41:47;101750.78;;;7.00;81.77
83118;BME280;73000;51.784;4.660;2023-12-14T05:44:15;101746.09;;;7.01;81.75
83118;BME280;73000;51.784;4.660;2023-12-14T05:46:41;101752.34;;;6.96;81.18
83118;BME280;73000;51.784;4.660;2023-12-14T05:49:10;101739.69;;;6.84;81.62
83118;BME280;73000;51.784;4.660;2023-12-14T05:51:39;101749.75;;;6.90;80.72
83118;BME280;73000;51.784;4.660;2023-12-14T05:54:05;101762.75;;;6.94;81.58
83118;BME280;73000;51.784;4.660;2023-12-14T05:56:33;101760.84;;;6.95;81.71
83118;BME280;73000;51.784;4.660;2023-12-14T05:58:59;101758.56;;;6.92;81.12
83118;BME280;73000;51.784;4.660;2023-12-14T06:01:25;101769.47;;;6.75;80.97
83118;BME280;73000;51.784;4.660;2023-12-14T06:03:51;101783.22;;;6.87;80.77
83118;BME280;73000;51.784;4.660;2023-12-14T06:06:16;101794.06;;;6.93;80.35
83118;BME280;73000;51.784;4.660;2023-12-14T06:08:42;101773.66;;;6.78;79.84
83118;BME280;73000;51.784;4.660;2023-12-14T06:11:08;101790.38;;;6.88;80.60
83118;BME280;73000;51.784;4.660;2023-12-14T06:13:34;101814.41;;;6.92;80.01
83118;BME280;73000;51.784;4.660;2023-12-14T06:16:00;101800.66;;;6.81;79.73
83118;BME280;73000;51.784;4.660;2023-12-14T06:18:26;101815.59;;;6.85;78.76
83118;BME280;73000;51.784;4.660;2023-12-14T06:20:51;101820.88;;;6.86;80.10
83118;BME280;73000;51.784;4.660;2023-12-14T06:23:17;101807.84;;;6.70;78.97
83118;BME280;73000;51.784;4.660;2023-12-14T06:25:43;101822.41;;;6.71;80.32
83118;BME280;73000;51.784;4.660;2023-12-14T06:28:12;101826.00;;;6.71;78.79
83118;BME280;73000;51.784;4.660;2023-12-14T06:30:37;101822.91;;;6.68;78.52
83118;BME280;73000;51.784;4.660;2023-12-14T06:33:03;101842.03;;;6.74;79.05
83118;BME280;73000;51.784;4.660;2023-12-14T06:35:28;101845.63;;;6.75;79.19
83118;BME280;73000;51.784;4.660;2023-12-14T06:37:54;101855.41;;;6.71;79.27
83118;BME280;73000;51.784;4.660;2023-12-14T06:40:19;101857.22;;;6.65;78.86
83118;BME280;73000;51.784;4.660;2023-12-14T06:42:48;101852.19;;;6.62;78.04
83118;BME280;73000;51.784;4.660;2023-12-14T06:45:20;101868.91;;;6.61;79.30
83118;BME280;73000;51.784;4.660;2023-12-14T06:47:46;101858.50;;;6.51;78.78
83118;BME280;73000;51.784;4.660;2023-12-14T06:50:15;101878.84;;;6.62;77.90
83118;BME280;73000;51.784;4.660;2023-12-14T06:52:41;101875.84;;;6.63;77.71
83118;BME280;73000;51.784;4.660;2023-12-14T06:55:07;101882.03;;;6.59;78.03
83118;BME280;73000;51.784;4.660;2023-12-14T06:57:32;101893.88;;;6.59;78.39
83118;BME280;73000;51.784;4.660;2023-12-14T06:59:58;101881.59;;;6.50;78.37
83118;BME280;73000;51.784;4.660;2023-12-14T07:02:23;101889.94;;;6.55;78.49
83118;BME280;73000;51.784;4.660;2023-12-14T07:04:49;101887.41;;;6.42;79.00
83118;BME280;73000;51.784;4.660;2023-12-14T07:07:15;101900.78;;;6.39;77.50
83118;BME280;73000;51.784;4.660;2023-12-14T07:09:44;101908.41;;;6.37;78.61
83118;BME280;73000;51.784;4.660;2023-12-14T07:12:11;101897.28;;;6.32;79.41
83118;BME280;73000;51.784;4.660;2023-12-14T07:14:37;101910.34;;;6.36;77.80
83118;BME280;73000;51.784;4.660;2023-12-14T07:17:02;101914.41;;;6.34;78.67
83118;BME280;73000;51.784;4.660;2023-12-14T07:19:28;101921.56;;;6.46;78.98
83118;BME280;73000;51.784;4.660;2023-12-14T07:21:53;101920.53;;;6.47;79.21
83118;BME280;73000;51.784;4.660;2023-12-14T07:24:19;101931.16;;;6.55;78.35
83118;BME280;73000;51.784;4.660;2023-12-14T07:26:45;101937.25;;;6.57;79.35
83118;BME280;73000;51.784;4.660;2023-12-14T07:29:10;101935.56;;;6.56;79.78
83118;BME280;73000;51.784;4.660;2023-12-14T07:31:36;101937.97;;;6.53;79.29
83118;BME280;73000;51.784;4.660;2023-12-14T07:34:02;101942.63;;;6.52;79.73
83118;BME280;73000;51.784;4.660;2023-12-14T07:36:30;101947.75;;;6.49;78.96
83118;BME280;73000;51.784;4.660;2023-12-14T07:38:55;101937.94;;;6.41;79.12
83118;BME280;73000;51.784;4.660;2023-12-14T07:41:25;101948.69;;;6.43;79.10
83118;BME280;73000;51.784;4.660;2023-12-14T07:43:55;101963.03;;;6.45;78.56
83118;BME280;73000;51.784;4.660;2023-12-14T07:46:20;101964.59;;;6.41;79.68
83118;BME280;73000;51.784;4.660;2023-12-14T07:48:46;101958.59;;;6.32;79.38
83118;BME280;73000;51.784;4.660;2023-12-14T07:51:12;101981.38;;;6.33;79.26
83118;BME280;73000;51.784;4.660;2023-12-14T07:53:38;101961.56;;;6.31;79.61
83118;BME280;73000;51.784;4.660;2023-12-14T07:56:08;101979.03;;;6.36;78.76
83118;BME280;73000;51.784;4.660;2023-12-14T07:58:38;101975.66;;;6.34;79.50
83118;BME280;73000;51.784;4.660;2023-12-14T08:01:09;101973.13;;;6.33;78.12
83118;BME280;73000;51.784;4.660;2023-12-14T08:03:35;101971.97;;;6.40;79.48
83118;BME280;73000;51.784;4.660;2023-12-14T08:06:01;101963.75;;;6.40;78.24
83118;BME280;73000;51.784;4.660;2023-12-14T08:08:26;101977.47;;;6.40;79.30
83118;BME280;73000;51.784;4.660;2023-12-14T08:10:51;101976.41;;;6.41;79.12
83118;BME280;73000;51.784;4.660;2023-12-14T08:13:17;101975.66;;;6.34;78.11
83118;BME280;73000;51.784;4.660;2023-12-14T08:15:44;101979.03;;;6.36;78.16
83118;BME280;73000;51.784;4.660;2023-12-14T08:18:09;101988.94;;;6.37;78.20
83118;BME280;73000;51.784;4.660;2023-12-14T08:20:34;102000.03;;;6.42;79.40
83118;BME280;73000;51.784;4.660;2023-12-14T08:23:00;102003.28;;;6.39;79.69
83118;BME280;73000;51.784;4.660;2023-12-14T08:25:27;102010.69;;;6.39;79.33
83118;BME280;73000;51.784;4.660;2023-12-14T08:27:53;102009.81;;;6.38;79.38
83118;BME280;73000;51.784;4.660;2023-12-14T08:30:18;102032.19;;;6.42;78.47
83118;BME280;73000;51.784;4.660;2023-12-14T08:32:44;102035.31;;;6.45;78.27
83118;BME280;73000;51.784;4.660;2023-12-14T08:35:14;102042.25;;;6.48;77.53
83118;BME280;73000;51.784;4.660;2023-12-14T08:37:40;102050.41;;;6.54;78.62
83118;BME280;73000;51.784;4.660;2023-12-14T08:40:05;102065.81;;;6.55;78.51
83118;BME280;73000;51.784;4.660;2023-12-14T08:42:32;102072.53;;;6.59;79.08
83118;BME280;73000;51.784;4.660;2023-12-14T08:44:57;102072.53;;;6.59;77.99
83118;BME280;73000;51.784;4.660;2023-12-14T08:47:22;102078.03;;;6.59;78.25
83118;BME280;73000;51.784;4.660;2023-12-14T08:49:48;102082.44;;;6.60;78.18
83118;BME280;73000;51.784;4.660;2023-12-14T08:52:14;102089.31;;;6.69;77.89
83118;BME280;73000;51.784;4.660;2023-12-14T08:54:39;102091.13;;;6.75;78.60
83118;BME280;73000;51.784;4.660;2023-12-14T08:57:05;102085.28;;;6.83;77.72
83118;BME280;73000;51.784;4.660;2023-12-14T08:59:30;102088.09;;;6.95;77.63
83118;BME280;73000;51.784;4.660;2023-12-14T09:01:56;102103.44;;;7.14;77.47
83118;BME280;73000;51.784;4.660;2023-12-14T09:04:23;102100.09;;;7.23;77.90
83118;BME280;73000;51.784;4.660;2023-12-14T09:06:48;102102.03;;;7.34;77.09
83118;BME280;73000;51.784;4.660;2023-12-14T09:09:14;102106.00;;;7.50;76.89
83118;BME280;73000;51.784;4.660;2023-12-14T09:11:39;102103.72;;;7.58;75.59
83118;BME280;73000;51.784;4.660;2023-12-14T09:14:05;102109.97;;;7.65;76.55
83118;BME280;73000;51.784;4.660;2023-12-14T09:16:33;102111.06;;;7.64;76.42
83118;BME280;73000;51.784;4.660;2023-12-14T09:18:58;102111.41;;;7.68;76.33
83118;BME280;73000;51.784;4.660;2023-12-14T09:21:23;102120.63;;;7.73;76.51
83118;BME280;73000;51.784;4.660;2023-12-14T09:23:49;102120.84;;;7.72;75.32
83118;BME280;73000;51.784;4.660;2023-12-14T09:26:15;102115.25;;;7.79;75.35
83118;BME280;73000;51.784;4.660;2023-12-14T09:28:40;102125.91;;;7.87;75.63
83118;BME280;73000;51.784;4.660;2023-12-14T09:31:07;102121.69;;;7.84;75.50
83118;BME280;73000;51.784;4.660;2023-12-14T09:33:32;102126.34;;;7.95;76.38
83118;BME280;73000;51.784;4.660;2023-12-14T09:35:58;102132.47;;;7.97;74.69
83118;BME280;73000;51.784;4.660;2023-12-14T09:38:23;102138.22;;;7.96;74.02
83118;BME280;73000;51.784;4.660;2023-12-14T09:40:48;102138.34;;;7.89;74.31
83118;BME280;73000;51.784;4.660;2023-12-14T09:43:14;102138.94;;;7.91;75.61
83118;BME280;73000;51.784;4.660;2023-12-14T09:45:41;102141.59;;;7.86;74.98
83118;BME280;73000;51.784;4.660;2023-12-14T09:48:10;102150.19;;;7.90;75.28
83118;BME280;73000;51.784;4.660;2023-12-14T09:50:39;102162.53;;;7.87;75.18
83118;BME280;73000;51.784;4.660;2023-12-14T09:53:05;102173.66;;;7.81;74.71
83118;BME280;73000;51.784;4.660;2023-12-14T09:55:32;102173.66;;;7.81;74.93
83118;BME280;73000;51.784;4.660;2023-12-14T09:57:57;102173.09;;;7.79;74.93
83118;BME280;73000;51.784;4.660;2023-12-14T10:00:37;102176.31;;;7.76;74.91
83118;BME280;73000;51.784;4.660;2023-12-14T10:03:24;102178.78;;;7.65;74.31
83118;BME280;73000;51.784;4.660;2023-12-14T10:05:51;102179.06;;;7.76;74.97
83118;BME280;73000;51.784;4.660;2023-12-14T10:08:18;102188.88;;;7.83;75.04
83118;BME280;73000;51.784;4.660;2023-12-14T10:10:48;102187.19;;;7.82;74.66
83118;BME280;73000;51.784;4.660;2023-12-14T10:13:18;102192.47;;;7.84;74.80
83118;BME280;73000;51.784;4.660;2023-12-14T10:15:45;102186.50;;;7.87;75.42
83118;BME280;73000;51.784;4.660;2023-12-14T10:18:16;102187.69;;;7.91;75.04
83118;BME280;73000;51.784;4.660;2023-12-14T10:20:42;102202.66;;;7.95;73.92
83118;BME280;73000;51.784;4.660;2023-12-14T10:23:10;102191.06;;;8.04;73.19
83118;BME280;73000;51.784;4.660;2023-12-14T10:25:35;102207.94;;;8.31;73.98
83118;BME280;73000;51.784;4.660;2023-12-14T10:28:04;102198.25;;;8.28;71.00
83118;BME280;73000;51.784;4.660;2023-12-14T10:30:29;102200.28;;;8.33;72.40
83118;BME280;73000;51.784;4.660;2023-12-14T10:32:56;102201.81;;;8.52;72.46
83118;BME280;73000;51.784;4.660;2023-12-14T10:35:21;102203.88;;;8.56;72.37
83118;BME280;73000;51.784;4.660;2023-12-14T10:37:49;102202.88;;;8.62;71.49
83118;BME280;73000;51.784;4.660;2023-12-14T10:40:19;102203.81;;;8.79;68.88
83118;BME280;73000;51.784;4.660;2023-12-14T10:42:46;102210.03;;;9.14;71.81
83118;BME280;73000;51.784;4.660;2023-12-14T10:45:14;102206.97;;;9.27;70.88
83118;BME280;73000;51.784;4.660;2023-12-14T10:47:45;102210.09;;;9.31;70.27
83118;BME280;73000;51.784;4.660;2023-12-14T10:50:12;102216.72;;;9.30;69.83
83118;BME280;73000;51.784;4.660;2023-12-14T10:52:43;102220.84;;;9.16;69.78
83118;BME280;73000;51.784;4.660;2023-12-14T10:55:15;102223.63;;;9.04;70.29
83118;BME280;73000;51.784;4.660;2023-12-14T10:57:43;102218.56;;;8.85;67.87
83118;BME280;73000;51.784;4.660;2023-12-14T11:00:10;102227.41;;;8.87;69.83
83118;BME280;73000;51.784;4.660;2023-12-14T11:02:41;102217.00;;;8.77;70.46
83118;BME280;73000;51.784;4.660;2023-12-14T11:05:11;102221.78;;;8.82;71.37
83118;BME280;73000;51.784;4.660;2023-12-14T11:07:48;102222.38;;;8.84;69.66
83118;BME280;73000;51.784;4.660;2023-12-14T11:10:15;102232.34;;;8.85;70.47
83118;BME280;73000;51.784;4.660;2023-12-14T11:13:11;102230.91;;;8.82;71.61
83118;BME280;73000;51.784;4.660;2023-12-14T11:15:49;102235.81;;;8.80;71.69
83118;BME280;73000;51.784;4.660;2023-12-14T11:20:48;102227.22;;;8.77;70.68
83118;BME280;73000;51.784;4.660;2023-12-14T11:23:16;102235.47;;;8.77;70.37
83118;BME280;73000;51.784;4.660;2023-12-14T11:25:50;102237.97;;;8.78;71.35
83118;BME280;73000;51.784;4.660;2023-12-14T11:28:16;102231.66;;;8.66;69.99
83118;BME280;73000;51.784;4.660;2023-12-14T11:30:43;102223.13;;;8.68;71.31
83118;BME280;73000;51.784;4.660;2023-12-14T11:33:11;102228.00;;;8.89;70.54
83118;BME280;73000;51.784;4.660;2023-12-14T11:35:37;102247.41;;;9.05;70.12
83118;BME280;73000;51.784;4.660;2023-12-14T11:38:02;102254.44;;;9.13;70.44
83118;BME280;73000;51.784;4.660;2023-12-14T11:40:35;102260.00;;;9.01;69.47
83118;BME280;73000;51.784;4.660;2023-12-14T11:43:03;102264.94;;;8.88;70.01
83118;BME280;73000;51.784;4.660;2023-12-14T11:45:33;102267.63;;;8.71;71.09
83118;BME280;73000;51.784;4.660;2023-12-14T11:47:58;102267.53;;;8.55;70.92
83118;BME280;73000;51.784;4.660;2023-12-14T11:50:24;102273.75;;;8.39;72.80
83118;BME280;73000;51.784;4.660;2023-12-14T11:52:49;102269.19;;;8.33;74.01
83118;BME280;73000;51.784;4.660;2023-12-14T11:55:14;102268.00;;;8.29;74.06
83118;BME280;73000;51.784;4.660;2023-12-14T11:57:46;102274.72;;;8.33;74.61
83118;BME280;73000;51.784;4.660;2023-12-14T12:00:13;102280.91;;;8.17;74.13
83118;BME280;73000;51.784;4.660;2023-12-14T12:02:40;102283.75;;;8.10;75.03
83118;BME280;73000;51.784;4.660;2023-12-14T12:05:08;102283.41;;;8.07;75.46
83118;BME280;73000;51.784;4.660;2023-12-14T12:07:33;102282.16;;;7.91;75.30
83118;BME280;73000;51.784;4.660;2023-12-14T12:09:59;102278.66;;;7.84;75.99
83118;BME280;73000;51.784;4.660;2023-12-14T12:12:24;102285.03;;;7.85;76.82
83118;BME280;73000;51.784;4.660;2023-12-14T12:14:50;102293.06;;;7.86;76.94
83118;BME280;73000;51.784;4.660;2023-12-14T12:17:18;102288.25;;;7.82;76.52
83118;BME280;73000;51.784;4.660;2023-12-14T12:19:47;102291.22;;;7.80;76.05
83118;BME280;73000;51.784;4.660;2023-12-14T12:22:16;102281.19;;;7.86;77.17
83118;BME280;73000;51.784;4.660;2023-12-14T12:24:44;102274.00;;;7.85;76.55
83118;BME280;73000;51.784;4.660;2023-12-14T12:27:09;102264.81;;;7.91;76.34
83118;BME280;73000;51.784;4.660;2023-12-14T12:29:35;102276.81;;;7.96;77.03
83118;BME280;73000;51.784;4.660;2023-12-14T12:32:00;102261.44;;;7.89;76.03
83118;BME280;73000;51.784;4.660;2023-12-14T12:34:25;102268.53;;;7.96;76.14
83118;BME280;73000;51.784;4.660;2023-12-14T12:36:51;102279.56;;;7.96;76.69
83118;BME280;73000;51.784;4.660;2023-12-14T12:39:18;102283.13;;;7.97;76.33
83118;BME280;73000;51.784;4.660;2023-12-14T12:41:43;102279.19;;;7.93;76.31
83118;BME280;73000;51.784;4.660;2023-12-14T12:44:09;102283.63;;;7.94;76.07
83118;BME280;73000;51.784;4.660;2023-12-14T12:46:34;102280.13;;;7.87;76.78
83118;BME280;73000;51.784;4.660;2023-12-14T12:49:04;102280.38;;;7.85;77.06
83118;BME280;73000;51.784;4.660;2023-12-14T12:51:30;102280.59;;;7.84;76.49
83118;BME280;73000;51.784;4.660;2023-12-14T12:53:56;102288.16;;;7.88;76.49
83118;BME280;73000;51.784;4.660;2023-12-14T12:56:23;102277.97;;;7.89;76.00
83118;BME280;73000;51.784;4.660;2023-12-14T12:58:49;102282.78;;;7.93;75.74
83118;BME280;73000;51.784;4.660;2023-12-14T13:01:15;102284.91;;;7.91;77.54
83118;BME280;73000;51.784;4.660;2023-12-14T13:03:40;102288.34;;;7.75;76.11
83118;BME280;73000;51.784;4.660;2023-12-14T13:06:06;102301.91;;;7.77;76.67